createdAt,value
2017-08-31T00:00:22.574Z,994.07
2017-08-31T00:01:22.558Z,994.09
2017-08-31T00:02:22.557Z,994.08
2017-08-31T00:03:22.586Z,994.09
2017-08-31T00:04:22.547Z,994.09
2017-08-31T00:05:22.537Z,994.07
2017-08-31T00:06:22.537Z,994.12
2017-08-31T00:07:22.967Z,994.14
2017-08-31T00:08:22.531Z,994.13
2017-08-31T00:09:22.512Z,994.09
2017-08-31T00:10:22.511Z,994.10
2017-08-31T00:11:22.510Z,994.11
2017-08-31T00:12:22.497Z,994.18
2017-08-31T00:13:22.853Z,994.18
2017-08-31T00:14:22.500Z,994.17
2017-08-31T00:15:22.489Z,994.13
2017-08-31T00:16:22.492Z,994.17
2017-08-31T00:17:22.469Z,994.14
2017-08-31T00:18:22.465Z,994.12
2017-08-31T00:19:22.670Z,994.15
2017-08-31T00:20:22.451Z,994.10
2017-08-31T00:21:22.453Z,994.11
2017-08-31T00:22:22.434Z,994.09
2017-08-31T00:23:22.435Z,994.18
2017-08-31T00:24:22.425Z,994.22
2017-08-31T00:25:22.712Z,994.20
2017-08-31T00:26:22.411Z,994.22
2017-08-31T00:27:22.410Z,994.24
2017-08-31T00:28:22.411Z,994.27
2017-08-31T00:29:22.395Z,994.33
2017-08-31T00:30:22.383Z,994.35
2017-08-31T00:31:22.748Z,994.31
2017-08-31T00:32:22.377Z,994.33
2017-08-31T00:33:22.370Z,994.41
2017-08-31T00:34:22.362Z,994.45
2017-08-31T00:35:22.359Z,994.47
2017-08-31T00:36:22.354Z,994.47
2017-08-31T00:37:22.381Z,994.54
2017-08-31T00:38:22.343Z,994.56
2017-08-31T00:39:22.339Z,994.57
2017-08-31T00:40:22.673Z,994.59
2017-08-31T00:41:22.323Z,994.55
2017-08-31T00:42:22.312Z,994.57
2017-08-31T00:43:22.309Z,994.50
2017-08-31T00:44:22.306Z,994.55
2017-08-31T00:45:22.294Z,994.56
2017-08-31T00:46:22.321Z,994.48
2017-08-31T00:47:22.287Z,994.43
2017-08-31T00:48:22.278Z,994.47
2017-08-31T00:49:22.267Z,994.50
2017-08-31T00:50:22.290Z,994.52
2017-08-31T00:51:22.575Z,994.48
2017-08-31T00:52:22.259Z,994.55
2017-08-31T00:53:22.246Z,994.47
2017-08-31T00:54:22.248Z,994.51
2017-08-31T00:55:22.232Z,994.48
2017-08-31T00:56:22.225Z,994.51
2017-08-31T00:57:22.640Z,994.52
2017-08-31T00:58:22.224Z,994.53
2017-08-31T00:59:22.208Z,994.57
2017-08-31T01:00:22.203Z,994.60
2017-08-31T01:01:22.200Z,994.63
2017-08-31T01:02:22.186Z,994.67
2017-08-31T01:03:22.629Z,994.66
2017-08-31T01:04:22.180Z,994.62
2017-08-31T01:05:22.173Z,994.61
2017-08-31T01:06:22.169Z,994.56
2017-08-31T01:07:22.158Z,994.59
2017-08-31T01:08:22.153Z,994.61
2017-08-31T01:09:22.572Z,994.56
2017-08-31T01:10:22.154Z,994.65
2017-08-31T01:11:22.127Z,994.60
2017-08-31T01:12:22.130Z,994.54
2017-08-31T01:13:22.115Z,994.54
2017-08-31T01:14:22.115Z,994.52
2017-08-31T01:15:22.139Z,994.52
2017-08-31T01:16:22.099Z,994.53
2017-08-31T01:17:22.091Z,994.46
2017-08-31T01:18:22.080Z,994.48
2017-08-31T01:19:22.090Z,994.51
2017-08-31T01:20:22.070Z,994.53
2017-08-31T01:21:22.329Z,994.58
2017-08-31T01:22:22.071Z,994.62
2017-08-31T01:23:22.049Z,994.64
2017-08-31T01:24:22.043Z,994.62
2017-08-31T01:25:22.046Z,994.68
2017-08-31T01:26:22.033Z,994.71
2017-08-31T01:27:22.068Z,994.71
2017-08-31T01:28:22.020Z,994.73
2017-08-31T01:29:22.444Z,994.76
2017-08-31T01:30:22.004Z,994.76
2017-08-31T01:31:22.005Z,994.82
2017-08-31T01:32:21.993Z,994.94
2017-08-31T01:33:21.984Z,994.93
2017-08-31T01:34:21.978Z,994.95
2017-08-31T01:35:22.327Z,994.98
2017-08-31T01:36:21.974Z,994.96
2017-08-31T01:37:21.969Z,994.90
2017-08-31T01:38:21.955Z,994.93
2017-08-31T01:39:21.967Z,994.98
2017-08-31T01:40:21.945Z,994.88
2017-08-31T01:41:22.313Z,994.96
2017-08-31T01:42:21.930Z,994.94
2017-08-31T01:43:21.922Z,994.96
2017-08-31T01:44:21.918Z,994.96
2017-08-31T01:45:21.913Z,994.90
2017-08-31T01:46:21.900Z,994.91
2017-08-31T01:47:21.933Z,994.92
2017-08-31T01:48:21.886Z,994.89
2017-08-31T01:49:22.309Z,994.96
2017-08-31T01:50:21.877Z,994.94
2017-08-31T01:51:21.874Z,994.94
2017-08-31T01:52:21.864Z,994.88
2017-08-31T01:53:21.862Z,994.90
2017-08-31T01:54:21.857Z,994.89
2017-08-31T01:55:21.889Z,994.95
2017-08-31T01:56:21.841Z,994.97
2017-08-31T01:57:21.836Z,994.92
2017-08-31T01:58:21.822Z,994.96
2017-08-31T01:59:21.815Z,994.92
2017-08-31T02:00:21.842Z,994.97
2017-08-31T02:01:21.804Z,994.90
2017-08-31T02:02:21.795Z,994.89
2017-08-31T02:03:21.787Z,994.89
2017-08-31T02:04:21.784Z,994.91
2017-08-31T02:05:21.772Z,994.84
2017-08-31T02:06:22.071Z,994.90
2017-08-31T02:07:21.767Z,994.98
2017-08-31T02:08:21.758Z,994.96
2017-08-31T02:09:21.752Z,994.97
2017-08-31T02:10:21.754Z,994.98
2017-08-31T02:11:21.737Z,995.00
2017-08-31T02:12:22.083Z,994.93
2017-08-31T02:13:21.721Z,994.95
2017-08-31T02:14:21.716Z,994.96
2017-08-31T02:15:21.711Z,994.94
2017-08-31T02:16:21.702Z,994.93
2017-08-31T02:17:21.705Z,994.93
2017-08-31T02:18:22.084Z,994.95
2017-08-31T02:19:21.684Z,994.95
2017-08-31T02:20:21.677Z,994.99
2017-08-31T02:21:21.667Z,995.01
2017-08-31T02:22:21.668Z,995.06
2017-08-31T02:23:21.655Z,995.08
2017-08-31T02:24:21.674Z,995.09
2017-08-31T02:25:21.648Z,995.03
2017-08-31T02:26:21.640Z,995.08
2017-08-31T02:27:21.646Z,995.05
2017-08-31T02:28:21.618Z,995.01
2017-08-31T02:29:21.616Z,994.99
2017-08-31T02:30:21.939Z,994.97
2017-08-31T02:31:21.602Z,995.02
2017-08-31T02:32:21.593Z,995.03
2017-08-31T02:33:21.587Z,995.09
2017-08-31T02:34:21.591Z,995.05
2017-08-31T02:35:21.584Z,995.04
2017-08-31T02:36:21.933Z,995.06
2017-08-31T02:37:21.566Z,995.03
2017-08-31T02:38:21.554Z,995.07
2017-08-31T02:39:21.550Z,995.06
2017-08-31T02:40:21.541Z,995.05
2017-08-31T02:41:21.542Z,995.10
2017-08-31T02:42:21.864Z,995.09
2017-08-31T02:43:21.532Z,995.09
2017-08-31T02:44:21.517Z,995.02
2017-08-31T02:45:21.509Z,995.05
2017-08-31T02:46:21.502Z,995.05
2017-08-31T02:47:21.492Z,995.04
2017-08-31T02:48:21.518Z,995.00
2017-08-31T02:49:21.489Z,994.97
2017-08-31T02:50:21.487Z,994.97
2017-08-31T02:51:21.473Z,994.94
2017-08-31T02:52:21.463Z,994.93
2017-08-31T02:53:21.753Z,994.98
2017-08-31T02:54:21.451Z,994.97
2017-08-31T02:55:21.446Z,994.95
2017-08-31T02:56:21.435Z,994.90
2017-08-31T02:57:21.429Z,994.90
2017-08-31T02:58:21.418Z,994.85
2017-08-31T02:59:21.832Z,994.91
2017-08-31T03:00:21.425Z,994.91
2017-08-31T03:01:21.400Z,994.90
2017-08-31T03:02:21.401Z,994.85
2017-08-31T03:03:21.386Z,994.87
2017-08-31T03:04:21.391Z,994.81
2017-08-31T03:05:21.707Z,994.79
2017-08-31T03:06:21.365Z,994.79
2017-08-31T03:07:21.363Z,994.76
2017-08-31T03:08:21.356Z,994.76
2017-08-31T03:09:21.340Z,994.76
2017-08-31T03:10:21.337Z,994.76
2017-08-31T03:11:21.759Z,994.81
2017-08-31T03:12:21.331Z,994.89
2017-08-31T03:13:21.318Z,994.85
2017-08-31T03:14:21.317Z,994.86
2017-08-31T03:15:21.307Z,994.89
2017-08-31T03:16:21.306Z,994.89
2017-08-31T03:17:21.716Z,994.93
2017-08-31T03:18:21.286Z,994.94
2017-08-31T03:19:21.274Z,995.01
2017-08-31T03:20:21.281Z,995.00
2017-08-31T03:21:21.265Z,995.06
2017-08-31T03:22:21.266Z,995.11
2017-08-31T03:23:21.289Z,995.10
2017-08-31T03:24:21.247Z,995.09
2017-08-31T03:25:21.242Z,995.14
2017-08-31T03:26:21.642Z,995.15
2017-08-31T03:27:21.223Z,995.12
2017-08-31T03:28:21.220Z,995.11
2017-08-31T03:29:21.212Z,995.07
2017-08-31T03:30:21.205Z,995.11
2017-08-31T03:31:21.206Z,995.11
2017-08-31T03:32:21.530Z,995.05
2017-08-31T03:33:21.186Z,995.12
2017-08-31T03:34:21.180Z,995.10
2017-08-31T03:35:21.177Z,995.09
2017-08-31T03:36:21.168Z,995.12
2017-08-31T03:37:21.157Z,995.05
2017-08-31T03:38:21.502Z,995.04
2017-08-31T03:39:21.141Z,995.02
2017-08-31T03:40:21.142Z,995.05
2017-08-31T03:41:21.135Z,995.07
2017-08-31T03:42:21.124Z,995.05
2017-08-31T03:43:21.116Z,995.02
2017-08-31T03:44:21.521Z,995.05
2017-08-31T03:45:21.108Z,995.02
2017-08-31T03:46:21.105Z,995.02
2017-08-31T03:47:21.088Z,995.09
2017-08-31T03:48:21.089Z,995.10
2017-08-31T03:49:21.074Z,995.10
2017-08-31T03:50:21.116Z,995.16
2017-08-31T03:51:21.059Z,995.15
2017-08-31T03:52:21.061Z,995.16
2017-08-31T03:53:21.057Z,995.19
2017-08-31T03:54:21.483Z,995.22
2017-08-31T03:55:21.039Z,995.24
2017-08-31T03:56:21.025Z,995.32
2017-08-31T03:57:21.019Z,995.26
2017-08-31T03:58:21.025Z,995.27
2017-08-31T03:59:21.007Z,995.27
2017-08-31T04:00:21.234Z,995.28
2017-08-31T04:01:20.990Z,995.29
2017-08-31T04:02:20.988Z,995.34
2017-08-31T04:03:20.981Z,995.31
2017-08-31T04:04:20.967Z,995.27
2017-08-31T04:05:20.964Z,995.28
2017-08-31T04:06:21.403Z,995.26
2017-08-31T04:07:20.953Z,995.34
2017-08-31T04:08:20.954Z,995.39
2017-08-31T04:09:20.939Z,995.37
2017-08-31T04:10:20.928Z,995.38
2017-08-31T04:11:20.928Z,995.41
2017-08-31T04:12:20.947Z,995.44
2017-08-31T04:13:20.919Z,995.44
2017-08-31T04:14:21.336Z,995.42
2017-08-31T04:15:20.899Z,995.41
2017-08-31T04:16:20.904Z,995.40
2017-08-31T04:17:20.891Z,995.32
2017-08-31T04:18:20.887Z,995.29
2017-08-31T04:19:20.871Z,995.26
2017-08-31T04:20:21.077Z,995.22
2017-08-31T04:21:20.858Z,995.21
2017-08-31T04:22:20.851Z,995.23
2017-08-31T04:23:20.841Z,995.25
2017-08-31T04:24:20.840Z,995.19
2017-08-31T04:25:20.828Z,995.18
2017-08-31T04:26:20.856Z,995.33
2017-08-31T04:27:20.813Z,995.26
2017-08-31T04:28:20.814Z,995.27
2017-08-31T04:29:20.798Z,995.32
2017-08-31T04:30:20.790Z,995.26
2017-08-31T04:31:21.168Z,995.22
2017-08-31T04:32:20.917Z,995.23
2017-08-31T04:33:20.765Z,995.28
2017-08-31T04:34:20.776Z,995.33
2017-08-31T04:35:20.751Z,995.28
2017-08-31T04:36:20.755Z,995.33
2017-08-31T04:37:21.115Z,995.35
2017-08-31T04:38:20.741Z,995.35
2017-08-31T04:39:20.723Z,995.42
2017-08-31T04:40:20.721Z,995.36
2017-08-31T04:41:20.709Z,995.43
2017-08-31T04:42:20.704Z,995.53
2017-08-31T04:43:20.997Z,995.44
2017-08-31T04:44:20.691Z,995.48
2017-08-31T04:45:20.691Z,995.44
2017-08-31T04:46:20.684Z,995.46
2017-08-31T04:47:20.674Z,995.44
2017-08-31T04:48:20.664Z,995.49
2017-08-31T04:49:20.680Z,995.49
2017-08-31T04:50:20.646Z,995.48
2017-08-31T04:51:20.651Z,995.58
2017-08-31T04:52:20.634Z,995.60
2017-08-31T04:53:20.831Z,995.60
2017-08-31T04:54:20.620Z,995.58
2017-08-31T04:55:20.611Z,995.64
2017-08-31T04:56:20.608Z,995.66
2017-08-31T04:57:20.597Z,995.71
2017-08-31T04:58:20.593Z,995.67
2017-08-31T04:59:20.608Z,995.71
2017-08-31T05:00:20.579Z,995.64
2017-08-31T05:01:20.567Z,995.66
2017-08-31T05:02:20.556Z,995.59
2017-08-31T05:03:20.915Z,995.61
2017-08-31T05:04:20.545Z,995.60
2017-08-31T05:05:20.538Z,995.64
2017-08-31T05:06:20.532Z,995.65
2017-08-31T05:07:20.524Z,995.68
2017-08-31T05:08:20.516Z,995.71
2017-08-31T05:09:20.547Z,995.67
2017-08-31T05:10:20.503Z,995.66
2017-08-31T05:11:20.496Z,995.72
2017-08-31T05:12:20.498Z,995.74
2017-08-31T05:13:20.690Z,995.77
2017-08-31T05:14:20.485Z,995.88
2017-08-31T05:15:20.464Z,995.84
2017-08-31T05:16:20.454Z,995.87
2017-08-31T05:17:20.449Z,995.84
2017-08-31T05:18:20.438Z,995.85
2017-08-31T05:19:20.658Z,995.88
2017-08-31T05:20:20.422Z,995.88
2017-08-31T05:21:20.429Z,995.90
2017-08-31T05:22:20.409Z,995.90
2017-08-31T05:23:20.403Z,995.94
2017-08-31T05:24:20.398Z,996.04
2017-08-31T05:25:20.785Z,996.10
2017-08-31T05:26:20.378Z,996.10
2017-08-31T05:27:20.378Z,996.10
2017-08-31T05:28:20.370Z,995.97
2017-08-31T05:29:20.356Z,996.10
2017-08-31T05:30:20.351Z,996.12
2017-08-31T05:31:20.776Z,996.18
2017-08-31T05:32:20.335Z,996.20
2017-08-31T05:33:41.338Z,996.20
2017-08-31T05:34:20.324Z,996.23
2017-08-31T05:35:20.316Z,996.21
2017-08-31T05:36:20.307Z,996.24
2017-08-31T05:37:20.722Z,996.26
2017-08-31T05:38:20.287Z,996.27
2017-08-31T05:39:20.290Z,996.23
2017-08-31T05:40:20.284Z,996.28
2017-08-31T05:41:20.265Z,996.29
2017-08-31T05:42:20.256Z,996.28
2017-08-31T05:43:20.603Z,996.27
2017-08-31T05:44:20.249Z,996.28
2017-08-31T05:45:20.239Z,996.27
2017-08-31T05:46:20.233Z,996.31
2017-08-31T05:47:20.222Z,996.24
2017-08-31T05:48:20.222Z,996.29
2017-08-31T05:49:20.644Z,996.30
2017-08-31T05:50:20.200Z,996.29
2017-08-31T05:51:20.190Z,996.27
2017-08-31T05:52:20.179Z,996.30
2017-08-31T05:53:20.172Z,996.29
2017-08-31T05:54:20.167Z,996.27
2017-08-31T05:55:20.188Z,996.27
2017-08-31T05:56:20.153Z,996.33
2017-08-31T05:57:20.143Z,996.36
2017-08-31T05:58:20.146Z,996.30
2017-08-31T05:59:20.126Z,996.21
2017-08-31T06:00:20.500Z,996.22
2017-08-31T06:01:20.108Z,996.24
2017-08-31T06:02:20.114Z,996.22
2017-08-31T06:03:20.093Z,996.30
2017-08-31T06:04:20.083Z,996.29
2017-08-31T06:05:20.078Z,996.31
2017-08-31T06:06:20.418Z,996.39
2017-08-31T06:07:20.061Z,996.49
2017-08-31T06:08:20.060Z,996.64
2017-08-31T06:09:20.043Z,996.67
2017-08-31T06:10:20.035Z,996.67
2017-08-31T06:11:20.038Z,996.63
2017-08-31T06:12:20.245Z,996.67
2017-08-31T06:13:20.013Z,996.71
2017-08-31T06:14:20.013Z,996.75
2017-08-31T06:15:19.993Z,996.77
2017-08-31T06:16:19.987Z,996.90
2017-08-31T06:17:19.988Z,996.93
2017-08-31T06:18:20.419Z,996.93
2017-08-31T06:19:19.964Z,996.87
2017-08-31T06:20:19.956Z,996.87
2017-08-31T06:21:19.945Z,996.91
2017-08-31T06:22:19.948Z,996.90
2017-08-31T06:23:19.929Z,996.90
2017-08-31T06:24:20.234Z,996.86
2017-08-31T06:25:19.915Z,996.87
2017-08-31T06:26:19.905Z,996.84
2017-08-31T06:27:19.898Z,996.89
2017-08-31T06:28:19.895Z,996.85
2017-08-31T06:29:19.897Z,996.87
2017-08-31T06:30:20.309Z,996.88
2017-08-31T06:31:20.735Z,996.80
2017-08-31T06:32:19.857Z,996.79
2017-08-31T06:33:19.850Z,996.80
2017-08-31T06:34:19.842Z,996.75
2017-08-31T06:35:19.836Z,996.71
2017-08-31T06:36:20.180Z,996.77
2017-08-31T06:37:19.816Z,996.78
2017-08-31T06:38:19.811Z,996.83
2017-08-31T06:39:19.796Z,996.89
2017-08-31T06:40:19.790Z,996.91
2017-08-31T06:41:19.785Z,996.92
2017-08-31T06:42:20.163Z,996.85
2017-08-31T06:43:19.766Z,996.88
2017-08-31T06:44:19.759Z,996.87
2017-08-31T06:45:19.750Z,996.91
2017-08-31T06:46:19.748Z,996.92
2017-08-31T06:47:19.739Z,996.90
2017-08-31T06:48:19.767Z,997.00
2017-08-31T06:49:19.720Z,996.97
2017-08-31T06:50:19.709Z,996.97
2017-08-31T06:51:19.719Z,996.93
2017-08-31T06:52:19.693Z,996.98
2017-08-31T06:53:19.691Z,997.02
2017-08-31T06:54:19.705Z,997.04
2017-08-31T06:55:19.667Z,997.09
2017-08-31T06:56:20.061Z,997.14
2017-08-31T06:57:19.653Z,997.21
2017-08-31T06:58:19.646Z,997.20
2017-08-31T06:59:19.638Z,997.31
2017-08-31T07:00:19.629Z,997.31
2017-08-31T07:01:19.622Z,997.28
2017-08-31T07:02:19.830Z,997.32
2017-08-31T07:03:19.622Z,997.31
2017-08-31T07:04:19.595Z,997.33
2017-08-31T07:05:19.586Z,997.40
2017-08-31T07:06:19.582Z,997.38
2017-08-31T07:07:19.575Z,997.36
2017-08-31T07:08:19.875Z,997.40
2017-08-31T07:09:19.554Z,997.45
2017-08-31T07:10:19.549Z,997.55
2017-08-31T07:11:19.538Z,997.55
2017-08-31T07:12:19.532Z,997.63
2017-08-31T07:13:19.527Z,997.65
2017-08-31T07:14:19.943Z,997.62
2017-08-31T07:15:19.519Z,997.66
2017-08-31T07:16:19.495Z,997.64
2017-08-31T07:17:19.492Z,997.63
2017-08-31T07:18:19.483Z,997.67
2017-08-31T07:19:19.467Z,997.67
2017-08-31T07:20:19.814Z,997.65
2017-08-31T07:21:19.462Z,997.76
2017-08-31T07:22:19.459Z,997.67
2017-08-31T07:23:19.440Z,997.72
2017-08-31T07:24:19.436Z,997.73
2017-08-31T07:25:19.422Z,997.72
2017-08-31T07:26:19.780Z,997.71
2017-08-31T07:27:19.400Z,997.76
2017-08-31T07:28:19.400Z,997.77
2017-08-31T07:29:19.385Z,997.84
2017-08-31T07:30:19.380Z,997.80
2017-08-31T07:31:19.366Z,997.88
2017-08-31T07:32:19.662Z,997.94
2017-08-31T07:33:19.365Z,997.88
2017-08-31T07:34:19.340Z,997.81
2017-08-31T07:35:19.336Z,998.00
2017-08-31T07:36:19.333Z,998.04
2017-08-31T07:37:19.321Z,998.09
2017-08-31T07:38:19.336Z,998.14
2017-08-31T07:39:19.303Z,998.16
2017-08-31T07:40:19.506Z,998.14
2017-08-31T07:41:19.289Z,998.15
2017-08-31T07:42:19.282Z,998.16
2017-08-31T07:43:19.272Z,998.18
2017-08-31T07:44:19.262Z,998.19
2017-08-31T07:45:19.266Z,998.26
2017-08-31T07:46:19.270Z,998.29
2017-08-31T07:47:19.236Z,998.32
2017-08-31T07:48:19.233Z,998.36
2017-08-31T07:49:19.223Z,998.40
2017-08-31T07:50:19.513Z,998.39
2017-08-31T07:51:19.209Z,998.48
2017-08-31T07:52:19.191Z,998.43
2017-08-31T07:53:19.184Z,998.48
2017-08-31T07:54:19.175Z,998.49
2017-08-31T07:55:19.169Z,998.56
2017-08-31T07:56:19.475Z,998.58
2017-08-31T07:57:19.179Z,998.62
2017-08-31T07:58:19.782Z,998.63
2017-08-31T07:59:27.793Z,998.63
2017-08-31T08:00:30.026Z,998.66
2017-08-31T08:01:19.345Z,998.70
2017-08-31T08:02:37.415Z,998.70
2017-08-31T08:03:19.105Z,998.68
2017-08-31T08:04:19.522Z,998.67
2017-08-31T08:05:33.207Z,998.73
2017-08-31T08:06:19.887Z,998.78
2017-08-31T08:09:04.254Z,998.90
2017-08-31T08:10:03.677Z,998.92
2017-08-31T08:13:55.353Z,999.01
2017-08-31T08:18:43.389Z,999.23
2017-08-31T08:19:52.984Z,999.27
2017-08-31T08:20:50.830Z,999.30
2017-08-31T08:21:42.920Z,999.27
2017-08-31T08:22:43.079Z,999.25
2017-08-31T08:23:52.048Z,999.28
2017-08-31T08:24:57.860Z,999.26
2017-08-31T08:28:51.661Z,999.32
2017-08-31T08:29:17.485Z,999.34
2017-08-31T08:30:16.201Z,999.38
2017-08-31T08:31:15.505Z,999.44
2017-08-31T08:32:15.308Z,999.41
2017-08-31T08:33:15.800Z,999.50
2017-08-31T08:34:15.242Z,999.46
2017-08-31T08:35:22.767Z,999.45
2017-08-31T08:36:15.934Z,999.49
2017-08-31T08:37:20.564Z,999.53
2017-08-31T08:38:35.627Z,999.53
2017-08-31T08:39:16.501Z,999.57
2017-08-31T08:40:15.673Z,999.64
2017-08-31T08:41:15.518Z,999.67
2017-08-31T08:42:15.206Z,999.67
2017-08-31T08:43:15.156Z,999.77
2017-08-31T08:44:15.153Z,999.78
2017-08-31T08:45:21.933Z,999.83
2017-08-31T08:46:15.154Z,999.83
2017-08-31T08:47:15.123Z,999.84
2017-08-31T08:48:15.107Z,999.85
2017-08-31T08:49:15.103Z,999.89
2017-08-31T08:50:16.946Z,999.83
2017-08-31T08:51:15.082Z,999.89
2017-08-31T08:52:15.091Z,999.99
2017-08-31T08:53:15.066Z,999.93
2017-08-31T08:54:15.062Z,999.95
2017-08-31T08:55:15.079Z,999.88
2017-08-31T08:56:16.521Z,999.89
2017-08-31T08:57:15.037Z,999.93
2017-08-31T08:58:15.032Z,999.85
2017-08-31T08:59:15.014Z,999.87
2017-08-31T09:00:15.014Z,999.93
2017-08-31T09:01:15.010Z,999.94
2017-08-31T09:02:15.041Z,1000.08
2017-08-31T09:03:15.002Z,1000.07
2017-08-31T09:04:14.977Z,1000.08
2017-08-31T09:05:14.963Z,1000.15
2017-08-31T09:06:14.961Z,1000.07
2017-08-31T09:07:15.378Z,1000.05
2017-08-31T09:08:14.935Z,1000.05
2017-08-31T09:09:14.921Z,1000.07
2017-08-31T09:10:14.920Z,1000.05
2017-08-31T09:11:14.907Z,1000.05
2017-08-31T09:12:14.903Z,1000.05
2017-08-31T09:13:14.927Z,1000.05
2017-08-31T09:14:14.883Z,1000.09
2017-08-31T09:15:14.888Z,1000.19
2017-08-31T09:16:14.870Z,1000.17
2017-08-31T09:17:14.862Z,1000.18
2017-08-31T09:18:15.247Z,1000.20
2017-08-31T09:19:14.849Z,1000.09
2017-08-31T09:20:14.852Z,1000.03
2017-08-31T09:21:15.441Z,1000.09
2017-08-31T09:22:14.942Z,1000.12
2017-08-31T09:23:14.820Z,1000.09
2017-08-31T09:24:15.240Z,1000.11
2017-08-31T09:25:14.797Z,1000.07
2017-08-31T09:26:15.824Z,1000.11
2017-08-31T09:27:14.787Z,1000.08
2017-08-31T09:28:14.807Z,1000.15
2017-08-31T09:29:28.215Z,1000.14
2017-08-31T09:30:17.215Z,1000.20
2017-08-31T09:31:15.205Z,1000.27
2017-08-31T09:32:15.009Z,1000.26
2017-08-31T09:33:15.303Z,1000.33
2017-08-31T09:34:15.132Z,1000.41
2017-08-31T09:35:15.108Z,1000.47
2017-08-31T09:36:14.698Z,1000.40
2017-08-31T09:37:14.684Z,1000.46
2017-08-31T09:38:14.677Z,1000.52
2017-08-31T09:39:14.668Z,1000.57
2017-08-31T09:40:14.658Z,1000.51
2017-08-31T09:41:15.044Z,1000.53
2017-08-31T09:42:14.639Z,1000.56
2017-08-31T09:43:14.665Z,1000.54
2017-08-31T09:44:14.659Z,1000.55
2017-08-31T09:45:14.620Z,1000.61
2017-08-31T09:46:14.624Z,1000.58
2017-08-31T09:47:14.630Z,1000.56
2017-08-31T09:48:14.595Z,1000.58
2017-08-31T09:49:14.588Z,1000.58
2017-08-31T09:50:14.613Z,1000.60
2017-08-31T09:51:14.569Z,1000.61
2017-08-31T09:52:14.564Z,1000.63
2017-08-31T09:53:14.552Z,1000.73
2017-08-31T09:54:14.546Z,1000.70
2017-08-31T09:55:14.938Z,1000.73
2017-08-31T09:56:14.537Z,1000.74
2017-08-31T09:57:14.515Z,1000.66
2017-08-31T09:58:14.520Z,1000.67
2017-08-31T09:59:14.506Z,1000.66
2017-08-31T10:00:14.707Z,1000.67
2017-08-31T10:01:14.843Z,1000.63
2017-08-31T10:02:14.475Z,1000.76
2017-08-31T10:03:14.592Z,1000.73
2017-08-31T10:04:14.466Z,1000.77
2017-08-31T10:05:14.472Z,1000.77
2017-08-31T10:06:17.510Z,1000.77
2017-08-31T10:07:14.773Z,1000.82
2017-08-31T10:08:14.434Z,1000.84
2017-08-31T10:09:14.424Z,1000.90
2017-08-31T10:10:14.416Z,1000.91
2017-08-31T10:11:14.407Z,1000.87
2017-08-31T10:12:14.399Z,1000.93
2017-08-31T10:13:14.426Z,1000.98
2017-08-31T10:14:14.387Z,1001.02
2017-08-31T10:15:14.371Z,1001.07
2017-08-31T10:16:14.365Z,1001.07
2017-08-31T10:17:14.361Z,1001.07
2017-08-31T10:18:14.679Z,1001.08
2017-08-31T10:19:14.334Z,1001.05
2017-08-31T10:20:14.323Z,1001.05
2017-08-31T10:21:14.320Z,1001.01
2017-08-31T10:22:14.314Z,1001.02
2017-08-31T10:23:14.304Z,1000.96
2017-08-31T10:24:14.612Z,1001.01
2017-08-31T10:25:14.290Z,1001.06
2017-08-31T10:26:14.274Z,1001.07
2017-08-31T10:27:14.275Z,1001.03
2017-08-31T10:28:14.261Z,1001.13
2017-08-31T10:29:14.254Z,1001.07
2017-08-31T10:30:14.675Z,1001.14
2017-08-31T10:31:14.237Z,1001.13
2017-08-31T10:32:14.349Z,1001.21
2017-08-31T10:33:14.228Z,1001.16
2017-08-31T10:34:14.209Z,1001.19
2017-08-31T10:35:14.225Z,1001.21
2017-08-31T10:36:14.404Z,1001.24
2017-08-31T10:37:14.193Z,1001.30
2017-08-31T10:38:14.181Z,1001.26
2017-08-31T10:39:14.170Z,1001.20
2017-08-31T10:40:14.179Z,1001.29
2017-08-31T10:41:14.300Z,1001.32
2017-08-31T10:42:14.597Z,1001.40
2017-08-31T10:43:25.895Z,1001.38
2017-08-31T10:44:15.019Z,1001.35
2017-08-31T10:45:14.979Z,1001.36
2017-08-31T10:46:14.480Z,1001.39
2017-08-31T10:47:14.112Z,1001.39
2017-08-31T10:48:15.194Z,1001.38
2017-08-31T10:49:14.096Z,1001.41
2017-08-31T10:50:14.081Z,1001.37
2017-08-31T10:51:14.085Z,1001.41
2017-08-31T10:52:14.108Z,1001.44
2017-08-31T10:53:30.686Z,1001.39
2017-08-31T10:54:14.923Z,1001.50
2017-08-31T10:55:14.776Z,1001.52
2017-08-31T10:56:14.056Z,1001.47
2017-08-31T10:57:14.106Z,1001.53
2017-08-31T10:58:14.051Z,1001.57
2017-08-31T10:59:14.939Z,1001.55
2017-08-31T11:00:14.304Z,1001.64
2017-08-31T11:01:14.594Z,1001.77
2017-08-31T11:02:13.982Z,1001.72
2017-08-31T11:03:13.985Z,1001.73
2017-08-31T11:04:13.992Z,1001.80
2017-08-31T11:05:13.961Z,1001.85
2017-08-31T11:06:13.994Z,1001.75
2017-08-31T11:07:13.948Z,1001.79
2017-08-31T11:08:13.935Z,1001.74
2017-08-31T11:09:14.040Z,1001.76
2017-08-31T11:10:13.953Z,1001.78
2017-08-31T11:11:14.115Z,1001.78
2017-08-31T11:12:13.902Z,1001.72
2017-08-31T11:13:13.907Z,1001.74
2017-08-31T11:14:13.881Z,1001.77
2017-08-31T11:15:13.929Z,1001.84
2017-08-31T11:16:13.866Z,1001.82
2017-08-31T11:17:13.876Z,1001.87
2017-08-31T11:18:13.861Z,1001.82
2017-08-31T11:19:13.850Z,1001.88
2017-08-31T11:20:14.139Z,1001.83
2017-08-31T11:21:13.832Z,1001.86
2017-08-31T11:22:13.819Z,1001.87
2017-08-31T11:23:13.814Z,1001.88
2017-08-31T11:24:13.800Z,1001.90
2017-08-31T11:25:13.798Z,1001.92
2017-08-31T11:26:14.153Z,1001.94
2017-08-31T11:27:13.797Z,1002.03
2017-08-31T11:28:13.865Z,1002.02
2017-08-31T11:29:13.931Z,1002.02
2017-08-31T11:30:13.802Z,1002.11
2017-08-31T11:31:13.905Z,1002.11
2017-08-31T11:32:14.084Z,1002.10
2017-08-31T11:33:13.888Z,1002.11
2017-08-31T11:34:13.780Z,1002.12
2017-08-31T11:35:13.719Z,1002.10
2017-08-31T11:36:13.975Z,1002.03
2017-08-31T11:37:13.829Z,1002.08
2017-08-31T11:38:14.104Z,1002.10
2017-08-31T11:39:13.692Z,1002.10
2017-08-31T11:40:13.692Z,1002.16
2017-08-31T11:41:13.737Z,1002.21
2017-08-31T11:42:14.575Z,1002.23
2017-08-31T11:43:13.666Z,1002.23
2017-08-31T11:44:15.578Z,1002.30
2017-08-31T11:45:13.639Z,1002.26
2017-08-31T11:46:13.640Z,1002.29
2017-08-31T11:47:13.613Z,1002.30
2017-08-31T11:48:13.905Z,1002.35
2017-08-31T11:49:13.606Z,1002.37
2017-08-31T11:50:13.631Z,1002.31
2017-08-31T11:51:13.593Z,1002.33
2017-08-31T11:52:13.581Z,1002.44
2017-08-31T11:53:13.589Z,1002.49
2017-08-31T11:54:13.562Z,1002.52
2017-08-31T11:55:13.883Z,1002.57
2017-08-31T11:56:13.551Z,1002.59
2017-08-31T11:57:13.537Z,1002.55
2017-08-31T11:58:13.534Z,1002.54
2017-08-31T11:59:14.067Z,1002.57
2017-08-31T12:00:13.516Z,1002.45
2017-08-31T12:01:13.927Z,1002.46
2017-08-31T12:02:13.500Z,1002.49
2017-08-31T12:03:13.500Z,1002.45
2017-08-31T12:04:13.483Z,1002.49
2017-08-31T12:05:13.475Z,1002.49
2017-08-31T12:06:13.600Z,1002.58
2017-08-31T12:07:13.816Z,1002.56
2017-08-31T12:08:13.454Z,1002.55
2017-08-31T12:09:13.445Z,1002.59
2017-08-31T12:10:13.444Z,1002.62
2017-08-31T12:11:13.451Z,1002.71
2017-08-31T12:12:13.420Z,1002.88
2017-08-31T12:13:13.636Z,1002.73
2017-08-31T12:14:13.416Z,1002.81
2017-08-31T12:15:13.409Z,1002.76
2017-08-31T12:16:13.384Z,1002.74
2017-08-31T12:17:13.390Z,1002.74
2017-08-31T12:18:14.081Z,1002.74
2017-08-31T12:19:13.681Z,1002.76
2017-08-31T12:20:13.365Z,1002.83
2017-08-31T12:21:13.353Z,1002.81
2017-08-31T12:22:13.346Z,1002.83
2017-08-31T12:23:13.339Z,1002.81
2017-08-31T12:24:13.332Z,1002.88
2017-08-31T12:25:13.712Z,1002.88
2017-08-31T12:26:13.316Z,1002.86
2017-08-31T12:27:13.300Z,1002.89
2017-08-31T12:28:13.296Z,1002.93
2017-08-31T12:29:13.288Z,1002.95
2017-08-31T12:30:13.534Z,1003.01
2017-08-31T12:31:13.482Z,1003.07
2017-08-31T12:32:13.268Z,1003.04